sensor_id;sensor_type;location;lat;lon;timestamp;P1;durP1;ratioP1;P2;durP2;ratioP2
74459;SDS011;62902;48.854;9.292;2022-12-07T00:01:26;8.77;;;4.47;;
74459;SDS011;62902;48.854;9.292;2022-12-07T00:03:55;10.43;;;6.00;;
74459;SDS011;62902;48.854;9.292;2022-12-07T00:06:26;10.27;;;5.85;;
74459;SDS011;62902;48.854;9.292;2022-12-07T00:08:53;11.10;;;5.55;;
74459;SDS011;62902;48.854;9.292;2022-12-07T00:11:21;10.50;;;5.70;;
74459;SDS011;62902;48.854;9.292;2022-12-07T00:13:52;10.43;;;5.30;;
74459;SDS011;62902;48.854;9.292;2022-12-07T00:16:20;14.43;;;5.72;;
74459;SDS011;62902;48.854;9.292;2022-12-07T00:18:51;9.93;;;5.15;;
74459;SDS011;62902;48.854;9.292;2022-12-07T00:21:19;12.45;;;6.53;;
74459;SDS011;62902;48.854;9.292;2022-12-07T00:23:50;10.50;;;5.93;;
74459;SDS011;62902;48.854;9.292;2022-12-07T00:26:21;12.65;;;5.72;;
74459;SDS011;62902;48.854;9.292;2022-12-07T00:28:51;12.55;;;5.03;;
74459;SDS011;62902;48.854;9.292;2022-12-07T00:31:20;9.18;;;5.07;;
74459;SDS011;62902;48.854;9.292;2022-12-07T00:33:47;11.15;;;5.47;;
74459;SDS011;62902;48.854;9.292;2022-12-07T00:36:15;10.73;;;5.72;;
74459;SDS011;62902;48.854;9.292;2022-12-07T00:38:48;10.82;;;5.00;;
74459;SDS011;62902;48.854;9.292;2022-12-07T00:41:16;8.85;;;4.78;;
74459;SDS011;62902;48.854;9.292;2022-12-07T00:43:45;10.77;;;5.43;;
74459;SDS011;62902;48.854;9.292;2022-12-07T00:46:12;11.27;;;5.30;;
74459;SDS011;62902;48.854;9.292;2022-12-07T00:48:39;10.85;;;5.47;;
74459;SDS011;62902;48.854;9.292;2022-12-07T00:51:07;12.25;;;6.03;;
74459;SDS011;62902;48.854;9.292;2022-12-07T00:53:34;11.32;;;5.18;;
74459;SDS011;62902;48.854;9.292;2022-12-07T00:56:07;11.82;;;5.68;;
74459;SDS011;62902;48.854;9.292;2022-12-07T00:58:34;16.95;;;5.50;;
74459;SDS011;62902;48.854;9.292;2022-12-07T01:01:01;10.82;;;5.03;;
74459;SDS011;62902;48.854;9.292;2022-12-07T01:03:29;12.40;;;6.20;;
74459;SDS011;62902;48.854;9.292;2022-12-07T01:05:56;11.38;;;4.97;;
74459;SDS011;62902;48.854;9.292;2022-12-07T01:08:23;9.95;;;4.43;;
74459;SDS011;62902;48.854;9.292;2022-12-07T01:11:01;12.20;;;5.13;;
74459;SDS011;62902;48.854;9.292;2022-12-07T01:13:30;10.15;;;4.90;;
74459;SDS011;62902;48.854;9.292;2022-12-07T01:15:58;11.45;;;5.50;;
74459;SDS011;62902;48.854;9.292;2022-12-07T01:18:26;10.75;;;5.78;;
74459;SDS011;62902;48.854;9.292;2022-12-07T01:21:04;11.02;;;5.75;;
74459;SDS011;62902;48.854;9.292;2022-12-07T01:23:32;9.90;;;4.82;;
74459;SDS011;62902;48.854;9.292;2022-12-07T01:26:00;10.68;;;5.55;;
74459;SDS011;62902;48.854;9.292;2022-12-07T01:28:29;12.95;;;6.00;;
74459;SDS011;62902;48.854;9.292;2022-12-07T01:31:06;12.00;;;5.85;;
74459;SDS011;62902;48.854;9.292;2022-12-07T01:33:34;12.73;;;6.32;;
74459;SDS011;62902;48.854;9.292;2022-12-07T01:38:33;13.00;;;6.07;;
74459;SDS011;62902;48.854;9.292;2022-12-07T01:41:00;13.20;;;5.82;;
74459;SDS011;62902;48.854;9.292;2022-12-07T01:43:28;13.52;;;6.40;;
74459;SDS011;62902;48.854;9.292;2022-12-07T01:45:55;10.10;;;5.47;;
74459;SDS011;62902;48.854;9.292;2022-12-07T01:48:24;14.88;;;5.97;;
74459;SDS011;62902;48.854;9.292;2022-12-07T01:50:54;14.20;;;6.45;;
74459;SDS011;62902;48.854;9.292;2022-12-07T01:53:22;13.70;;;5.40;;
74459;SDS011;62902;48.854;9.292;2022-12-07T01:55:50;12.52;;;5.97;;
74459;SDS011;62902;48.854;9.292;2022-12-07T01:58:18;15.32;;;5.60;;
74459;SDS011;62902;48.854;9.292;2022-12-07T02:00:45;13.35;;;6.20;;
74459;SDS011;62902;48.854;9.292;2022-12-07T02:03:17;12.27;;;6.32;;
74459;SDS011;62902;48.854;9.292;2022-12-07T02:05:46;13.13;;;6.15;;
74459;SDS011;62902;48.854;9.292;2022-12-07T02:08:13;11.30;;;6.00;;
74459;SDS011;62902;48.854;9.292;2022-12-07T02:10:40;12.20;;;6.60;;
74459;SDS011;62902;48.854;9.292;2022-12-07T02:20:41;11.88;;;5.60;;
74459;SDS011;62902;48.854;9.292;2022-12-07T02:29:45;14.82;;;6.47;;
74459;SDS011;62902;48.854;9.292;2022-12-07T02:32:26;12.63;;;5.15;;
74459;SDS011;62902;48.854;9.292;2022-12-07T02:37:53;20.95;;;6.97;;
74459;SDS011;62902;48.854;9.292;2022-12-07T02:43:25;14.70;;;6.78;;
74459;SDS011;62902;48.854;9.292;2022-12-07T02:45:58;13.82;;;6.55;;
74459;SDS011;62902;48.854;9.292;2022-12-07T02:48:31;13.85;;;6.55;;
74459;SDS011;62902;48.854;9.292;2022-12-07T02:50:59;12.18;;;6.07;;
74459;SDS011;62902;48.854;9.292;2022-12-07T03:01:28;15.90;;;6.75;;
74459;SDS011;62902;48.854;9.292;2022-12-07T03:12:53;15.15;;;6.70;;
74459;SDS011;62902;48.854;9.292;2022-12-07T03:18:41;16.42;;;6.90;;
74459;SDS011;62902;48.854;9.292;2022-12-07T03:21:13;12.27;;;5.93;;
74459;SDS011;62902;48.854;9.292;2022-12-07T03:23:42;15.57;;;6.90;;
74459;SDS011;62902;48.854;9.292;2022-12-07T03:26:12;14.10;;;6.45;;
74459;SDS011;62902;48.854;9.292;2022-12-07T03:28:40;13.23;;;6.82;;
74459;SDS011;62902;48.854;9.292;2022-12-07T03:31:17;17.55;;;5.63;;
74459;SDS011;62902;48.854;9.292;2022-12-07T03:33:49;12.05;;;5.43;;
74459;SDS011;62902;48.854;9.292;2022-12-07T03:36:23;15.23;;;6.65;;
74459;SDS011;62902;48.854;9.292;2022-12-07T03:38:55;14.15;;;5.93;;
74459;SDS011;62902;48.854;9.292;2022-12-07T03:41:28;12.93;;;6.30;;
74459;SDS011;62902;48.854;9.292;2022-12-07T03:43:56;10.65;;;5.30;;
74459;SDS011;62902;48.854;9.292;2022-12-07T03:49:49;12.15;;;5.68;;
74459;SDS011;62902;48.854;9.292;2022-12-07T03:55:14;11.70;;;4.90;;
74459;SDS011;62902;48.854;9.292;2022-12-07T03:57:45;11.40;;;5.40;;
74459;SDS011;62902;48.854;9.292;2022-12-07T04:00:14;11.27;;;5.38;;
74459;SDS011;62902;48.854;9.292;2022-12-07T04:02:41;12.65;;;5.75;;
74459;SDS011;62902;48.854;9.292;2022-12-07T04:05:09;11.50;;;5.78;;
74459;SDS011;62902;48.854;9.292;2022-12-07T04:07:36;12.00;;;5.72;;
74459;SDS011;62902;48.854;9.292;2022-12-07T04:10:03;11.18;;;5.53;;
74459;SDS011;62902;48.854;9.292;2022-12-07T04:12:31;15.57;;;5.57;;
74459;SDS011;62902;48.854;9.292;2022-12-07T04:14:57;9.55;;;5.00;;
74459;SDS011;62902;48.854;9.292;2022-12-07T04:17:24;12.27;;;6.03;;
74459;SDS011;62902;48.854;9.292;2022-12-07T04:19:50;14.82;;;6.20;;
74459;SDS011;62902;48.854;9.292;2022-12-07T04:22:17;18.30;;;6.45;;
74459;SDS011;62902;48.854;9.292;2022-12-07T04:24:44;9.60;;;3.20;;
74459;SDS011;62902;48.854;9.292;2022-12-07T04:27:10;12.38;;;5.63;;
74459;SDS011;62902;48.854;9.292;2022-12-07T04:29:37;13.57;;;6.22;;
74459;SDS011;62902;48.854;9.292;2022-12-07T04:32:03;14.02;;;5.80;;
74459;SDS011;62902;48.854;9.292;2022-12-07T04:34:30;13.10;;;6.05;;
74459;SDS011;62902;48.854;9.292;2022-12-07T04:36:56;14.52;;;6.40;;
74459;SDS011;62902;48.854;9.292;2022-12-07T04:39:27;13.32;;;5.82;;
74459;SDS011;62902;48.854;9.292;2022-12-07T04:41:55;17.00;;;7.00;;
74459;SDS011;62902;48.854;9.292;2022-12-07T04:44:22;15.43;;;6.38;;
74459;SDS011;62902;48.854;9.292;2022-12-07T04:46:50;16.30;;;6.85;;
74459;SDS011;62902;48.854;9.292;2022-12-07T04:49:17;13.55;;;6.53;;
74459;SDS011;62902;48.854;9.292;2022-12-07T04:51:44;16.33;;;6.22;;
74459;SDS011;62902;48.854;9.292;2022-12-07T04:54:11;16.27;;;7.13;;
74459;SDS011;62902;48.854;9.292;2022-12-07T04:56:38;15.85;;;6.47;;
74459;SDS011;62902;48.854;9.292;2022-12-07T04:59:05;15.70;;;6.32;;
74459;SDS011;62902;48.854;9.292;2022-12-07T05:01:32;16.83;;;6.47;;
74459;SDS011;62902;48.854;9.292;2022-12-07T05:03:59;20.60;;;7.65;;
74459;SDS011;62902;48.854;9.292;2022-12-07T05:06:25;13.52;;;6.28;;
74459;SDS011;62902;48.854;9.292;2022-12-07T05:08:52;13.90;;;6.07;;
74459;SDS011;62902;48.854;9.292;2022-12-07T05:11:18;14.40;;;5.75;;
74459;SDS011;62902;48.854;9.292;2022-12-07T05:14:17;12.80;;;5.78;;
74459;SDS011;62902;48.854;9.292;2022-12-07T05:16:46;12.95;;;5.30;;
74459;SDS011;62902;48.854;9.292;2022-12-07T05:19:14;13.52;;;6.57;;
74459;SDS011;62902;48.854;9.292;2022-12-07T05:21:41;11.32;;;5.13;;
74459;SDS011;62902;48.854;9.292;2022-12-07T05:24:08;15.20;;;6.32;;
74459;SDS011;62902;48.854;9.292;2022-12-07T05:26:36;16.15;;;7.03;;
74459;SDS011;62902;48.854;9.292;2022-12-07T05:29:03;11.77;;;5.70;;
74459;SDS011;62902;48.854;9.292;2022-12-07T05:31:30;11.63;;;5.35;;
74459;SDS011;62902;48.854;9.292;2022-12-07T05:33:57;12.45;;;5.97;;
74459;SDS011;62902;48.854;9.292;2022-12-07T05:36:23;11.75;;;5.78;;
74459;SDS011;62902;48.854;9.292;2022-12-07T05:38:50;11.82;;;6.07;;
74459;SDS011;62902;48.854;9.292;2022-12-07T05:41:17;13.82;;;6.03;;
74459;SDS011;62902;48.854;9.292;2022-12-07T05:44:03;16.27;;;6.57;;
74459;SDS011;62902;48.854;9.292;2022-12-07T05:46:30;10.07;;;5.22;;
74459;SDS011;62902;48.854;9.292;2022-12-07T05:48:57;12.85;;;5.50;;
74459;SDS011;62902;48.854;9.292;2022-12-07T05:51:23;11.77;;;5.70;;
74459;SDS011;62902;48.854;9.292;2022-12-07T05:53:50;11.60;;;5.40;;
74459;SDS011;62902;48.854;9.292;2022-12-07T05:56:16;11.13;;;5.45;;
74459;SDS011;62902;48.854;9.292;2022-12-07T05:58:43;13.50;;;6.13;;
74459;SDS011;62902;48.854;9.292;2022-12-07T06:01:32;11.82;;;5.47;;
74459;SDS011;62902;48.854;9.292;2022-12-07T06:03:59;11.65;;;5.57;;
74459;SDS011;62902;48.854;9.292;2022-12-07T06:06:25;16.10;;;6.95;;
74459;SDS011;62902;48.854;9.292;2022-12-07T06:08:52;18.02;;;7.32;;
74459;SDS011;62902;48.854;9.292;2022-12-07T06:11:19;15.38;;;6.60;;
74459;SDS011;62902;48.854;9.292;2022-12-07T06:14:06;13.15;;;5.80;;
74459;SDS011;62902;48.854;9.292;2022-12-07T06:16:32;12.15;;;6.30;;
74459;SDS011;62902;48.854;9.292;2022-12-07T06:18:59;15.27;;;6.10;;
74459;SDS011;62902;48.854;9.292;2022-12-07T06:21:26;11.57;;;5.53;;
74459;SDS011;62902;48.854;9.292;2022-12-07T06:23:53;12.77;;;6.20;;
74459;SDS011;62902;48.854;9.292;2022-12-07T06:26:19;12.27;;;5.88;;
74459;SDS011;62902;48.854;9.292;2022-12-07T06:28:46;13.85;;;6.88;;
74459;SDS011;62902;48.854;9.292;2022-12-07T06:31:15;14.40;;;6.43;;
74459;SDS011;62902;48.854;9.292;2022-12-07T06:33:42;12.88;;;6.30;;
74459;SDS011;62902;48.854;9.292;2022-12-07T06:36:09;14.18;;;6.68;;
74459;SDS011;62902;48.854;9.292;2022-12-07T06:38:39;12.68;;;5.80;;
74459;SDS011;62902;48.854;9.292;2022-12-07T06:41:05;13.80;;;6.25;;
74459;SDS011;62902;48.854;9.292;2022-12-07T06:43:32;12.45;;;6.18;;
74459;SDS011;62902;48.854;9.292;2022-12-07T06:45:59;12.60;;;6.20;;
74459;SDS011;62902;48.854;9.292;2022-12-07T06:48:26;13.93;;;5.63;;
74459;SDS011;62902;48.854;9.292;2022-12-07T06:50:52;13.13;;;5.72;;
74459;SDS011;62902;48.854;9.292;2022-12-07T06:53:21;12.15;;;5.65;;
74459;SDS011;62902;48.854;9.292;2022-12-07T06:55:47;12.02;;;5.50;;
74459;SDS011;62902;48.854;9.292;2022-12-07T06:58:14;11.70;;;5.78;;
74459;SDS011;62902;48.854;9.292;2022-12-07T07:00:41;11.40;;;5.18;;
74459;SDS011;62902;48.854;9.292;2022-12-07T07:03:07;10.88;;;5.82;;
74459;SDS011;62902;48.854;9.292;2022-12-07T07:05:34;12.90;;;6.50;;
74459;SDS011;62902;48.854;9.292;2022-12-07T07:08:01;12.98;;;6.07;;
74459;SDS011;62902;48.854;9.292;2022-12-07T07:10:48;15.40;;;6.13;;
74459;SDS011;62902;48.854;9.292;2022-12-07T07:13:15;12.70;;;5.55;;
74459;SDS011;62902;48.854;9.292;2022-12-07T07:15:42;13.27;;;6.60;;
74459;SDS011;62902;48.854;9.292;2022-12-07T07:18:08;16.38;;;6.13;;
74459;SDS011;62902;48.854;9.292;2022-12-07T07:20:37;15.48;;;6.88;;
74459;SDS011;62902;48.854;9.292;2022-12-07T07:23:03;13.18;;;5.45;;
74459;SDS011;62902;48.854;9.292;2022-12-07T07:25:30;13.88;;;5.82;;
74459;SDS011;62902;48.854;9.292;2022-12-07T07:27:57;13.05;;;5.93;;
74459;SDS011;62902;48.854;9.292;2022-12-07T07:30:24;14.75;;;6.28;;
74459;SDS011;62902;48.854;9.292;2022-12-07T07:32:50;16.45;;;6.15;;
74459;SDS011;62902;48.854;9.292;2022-12-07T07:35:17;16.55;;;6.75;;
74459;SDS011;62902;48.854;9.292;2022-12-07T07:37:44;13.75;;;6.45;;
74459;SDS011;62902;48.854;9.292;2022-12-07T07:40:10;14.13;;;6.72;;
74459;SDS011;62902;48.854;9.292;2022-12-07T07:42:37;14.40;;;5.55;;
74459;SDS011;62902;48.854;9.292;2022-12-07T07:45:04;12.75;;;6.10;;
74459;SDS011;62902;48.854;9.292;2022-12-07T07:47:30;12.70;;;5.80;;
74459;SDS011;62902;48.854;9.292;2022-12-07T07:49:57;11.38;;;5.50;;
74459;SDS011;62902;48.854;9.292;2022-12-07T07:52:24;10.32;;;5.43;;
74459;SDS011;62902;48.854;9.292;2022-12-07T07:54:50;14.15;;;5.30;;
74459;SDS011;62902;48.854;9.292;2022-12-07T07:57:17;15.27;;;5.57;;
74459;SDS011;62902;48.854;9.292;2022-12-07T07:59:43;13.95;;;6.50;;
74459;SDS011;62902;48.854;9.292;2022-12-07T08:02:14;15.05;;;6.60;;
74459;SDS011;62902;48.854;9.292;2022-12-07T08:04:42;12.93;;;5.72;;
74459;SDS011;62902;48.854;9.292;2022-12-07T08:07:10;13.38;;;6.60;;
74459;SDS011;62902;48.854;9.292;2022-12-07T08:09:37;13.68;;;6.15;;
74459;SDS011;62902;48.854;9.292;2022-12-07T08:12:04;13.10;;;6.00;;
74459;SDS011;62902;48.854;9.292;2022-12-07T08:14:32;14.00;;;6.50;;
74459;SDS011;62902;48.854;9.292;2022-12-07T08:17:00;14.13;;;6.68;;
74459;SDS011;62902;48.854;9.292;2022-12-07T08:19:26;15.25;;;6.93;;
74459;SDS011;62902;48.854;9.292;2022-12-07T08:21:53;13.70;;;6.25;;
74459;SDS011;62902;48.854;9.292;2022-12-07T08:24:21;14.07;;;6.80;;
74459;SDS011;62902;48.854;9.292;2022-12-07T08:26:48;15.20;;;6.38;;
74459;SDS011;62902;48.854;9.292;2022-12-07T08:29:16;16.23;;;6.28;;
74459;SDS011;62902;48.854;9.292;2022-12-07T08:31:43;11.80;;;5.03;;
74459;SDS011;62902;48.854;9.292;2022-12-07T08:34:10;13.77;;;6.35;;
74459;SDS011;62902;48.854;9.292;2022-12-07T08:36:38;12.80;;;6.05;;
74459;SDS011;62902;48.854;9.292;2022-12-07T08:39:05;10.93;;;5.70;;
74459;SDS011;62902;48.854;9.292;2022-12-07T08:41:54;8.20;;;4.20;;
74459;SDS011;62902;48.854;9.292;2022-12-07T08:44:21;11.88;;;5.50;;
74459;SDS011;62902;48.854;9.292;2022-12-07T08:46:49;12.48;;;5.28;;
74459;SDS011;62902;48.854;9.292;2022-12-07T08:49:19;10.88;;;4.68;;
74459;SDS011;62902;48.854;9.292;2022-12-07T08:51:48;13.73;;;4.75;;
74459;SDS011;62902;48.854;9.292;2022-12-07T08:54:15;9.05;;;4.05;;
74459;SDS011;62902;48.854;9.292;2022-12-07T08:56:44;10.07;;;4.75;;
74459;SDS011;62902;48.854;9.292;2022-12-07T08:59:12;10.05;;;4.40;;
74459;SDS011;62902;48.854;9.292;2022-12-07T09:01:41;10.43;;;5.20;;
74459;SDS011;62902;48.854;9.292;2022-12-07T09:04:08;9.43;;;4.15;;
74459;SDS011;62902;48.854;9.292;2022-12-07T09:06:34;8.77;;;4.20;;
74459;SDS011;62902;48.854;9.292;2022-12-07T09:09:01;12.98;;;4.63;;
74459;SDS011;62902;48.854;9.292;2022-12-07T09:11:30;9.38;;;4.50;;
74459;SDS011;62902;48.854;9.292;2022-12-07T09:13:56;8.80;;;4.28;;
74459;SDS011;62902;48.854;9.292;2022-12-07T09:16:25;10.88;;;4.38;;
74459;SDS011;62902;48.854;9.292;2022-12-07T09:18:52;10.38;;;4.22;;
74459;SDS011;62902;48.854;9.292;2022-12-07T09:21:18;7.80;;;3.60;;
74459;SDS011;62902;48.854;9.292;2022-12-07T09:23:45;14.15;;;3.75;;
74459;SDS011;62902;48.854;9.292;2022-12-07T09:26:11;9.23;;;4.05;;
74459;SDS011;62902;48.854;9.292;2022-12-07T09:28:38;10.02;;;4.32;;
74459;SDS011;62902;48.854;9.292;2022-12-07T09:31:05;10.13;;;3.47;;
74459;SDS011;62902;48.854;9.292;2022-12-07T09:33:57;7.32;;;3.65;;
74459;SDS011;62902;48.854;9.292;2022-12-07T09:36:25;11.30;;;3.70;;
74459;SDS011;62902;48.854;9.292;2022-12-07T09:38:53;10.40;;;3.92;;
74459;SDS011;62902;48.854;9.292;2022-12-07T09:41:19;8.15;;;3.47;;
74459;SDS011;62902;48.854;9.292;2022-12-07T09:43:49;9.25;;;3.78;;
74459;SDS011;62902;48.854;9.292;2022-12-07T09:46:17;7.43;;;3.10;;
74459;SDS011;62902;48.854;9.292;2022-12-07T09:48:46;6.57;;;3.33;;
74459;SDS011;62902;48.854;9.292;2022-12-07T09:51:18;4.97;;;2.40;;
74459;SDS011;62902;48.854;9.292;2022-12-07T09:53:50;6.60;;;3.00;;
74459;SDS011;62902;48.854;9.292;2022-12-07T09:56:24;6.07;;;2.80;;
74459;SDS011;62902;48.854;9.292;2022-12-07T09:58:54;7.30;;;3.45;;
74459;SDS011;62902;48.854;9.292;2022-12-07T10:01:30;6.40;;;2.92;;
74459;SDS011;62902;48.854;9.292;2022-12-07T10:06:42;5.50;;;2.45;;
74459;SDS011;62902;48.854;9.292;2022-12-07T10:09:10;7.60;;;3.13;;
74459;SDS011;62902;48.854;9.292;2022-12-07T10:14:27;6.15;;;2.30;;
74459;SDS011;62902;48.854;9.292;2022-12-07T10:17:27;6.15;;;2.63;;
74459;SDS011;62902;48.854;9.292;2022-12-07T10:25:44;7.25;;;2.00;;
74459;SDS011;62902;48.854;9.292;2022-12-07T10:28:12;6.32;;;2.65;;
74459;SDS011;62902;48.854;9.292;2022-12-07T10:30:46;9.45;;;2.95;;
74459;SDS011;62902;48.854;9.292;2022-12-07T10:33:27;7.25;;;2.63;;
74459;SDS011;62902;48.854;9.292;2022-12-07T10:38:48;6.88;;;2.97;;
74459;SDS011;62902;48.854;9.292;2022-12-07T10:41:20;8.82;;;2.58;;
74459;SDS011;62902;48.854;9.292;2022-12-07T10:43:51;8.75;;;3.63;;
74459;SDS011;62902;48.854;9.292;2022-12-07T10:49:33;7.63;;;2.90;;
74459;SDS011;62902;48.854;9.292;2022-12-07T10:58:24;6.38;;;2.97;;
74459;SDS011;62902;48.854;9.292;2022-12-07T11:00:55;7.82;;;3.15;;
74459;SDS011;62902;48.854;9.292;2022-12-07T11:15:21;5.88;;;2.67;;
74459;SDS011;62902;48.854;9.292;2022-12-07T11:18:13;5.10;;;2.42;;
74459;SDS011;62902;48.854;9.292;2022-12-07T11:21:07;5.88;;;2.35;;
74459;SDS011;62902;48.854;9.292;2022-12-07T11:24:06;9.25;;;3.13;;
74459;SDS011;62902;48.854;9.292;2022-12-07T11:37:59;6.55;;;2.90;;
74459;SDS011;62902;48.854;9.292;2022-12-07T11:40:33;6.03;;;2.90;;
74459;SDS011;62902;48.854;9.292;2022-12-07T11:43:07;6.97;;;2.90;;
74459;SDS011;62902;48.854;9.292;2022-12-07T11:45:41;5.65;;;2.65;;
74459;SDS011;62902;48.854;9.292;2022-12-07T11:51:00;9.55;;;4.05;;
74459;SDS011;62902;48.854;9.292;2022-12-07T11:53:42;7.15;;;3.30;;
74459;SDS011;62902;48.854;9.292;2022-12-07T11:56:13;10.48;;;4.18;;
74459;SDS011;62902;48.854;9.292;2022-12-07T12:04:15;12.68;;;5.13;;
74459;SDS011;62902;48.854;9.292;2022-12-07T12:06:47;8.75;;;3.90;;
74459;SDS011;62902;48.854;9.292;2022-12-07T12:20:33;8.98;;;4.25;;
74459;SDS011;62902;48.854;9.292;2022-12-07T12:23:20;9.40;;;4.10;;
74459;SDS011;62902;48.854;9.292;2022-12-07T12:25:59;8.98;;;3.55;;
74459;SDS011;62902;48.854;9.292;2022-12-07T12:31:07;8.80;;;4.50;;
74459;SDS011;62902;48.854;9.292;2022-12-07T12:33:37;9.68;;;4.63;;
74459;SDS011;62902;48.854;9.292;2022-12-07T12:51:58;9.13;;;4.38;;
74459;SDS011;62902;48.854;9.292;2022-12-07T12:54:27;9.32;;;4.30;;
74459;SDS011;62902;48.854;9.292;2022-12-07T13:10:29;8.43;;;4.03;;
74459;SDS011;62902;48.854;9.292;2022-12-07T13:15:47;11.20;;;4.65;;
74459;SDS011;62902;48.854;9.292;2022-12-07T13:18:22;8.30;;;3.60;;
74459;SDS011;62902;48.854;9.292;2022-12-07T13:31:49;8.75;;;4.05;;
74459;SDS011;62902;48.854;9.292;2022-12-07T13:34:34;9.25;;;4.20;;
74459;SDS011;62902;48.854;9.292;2022-12-07T13:37:09;10.25;;;4.65;;
74459;SDS011;62902;48.854;9.292;2022-12-07T13:39:52;10.93;;;5.05;;
74459;SDS011;62902;48.854;9.292;2022-12-07T13:42:23;12.93;;;5.10;;
74459;SDS011;62902;48.854;9.292;2022-12-07T13:44:52;11.07;;;4.28;;
74459;SDS011;62902;48.854;9.292;2022-12-07T13:47:30;11.13;;;5.10;;
74459;SDS011;62902;48.854;9.292;2022-12-07T13:50:01;9.05;;;4.65;;
74459;SDS011;62902;48.854;9.292;2022-12-07T13:52:28;10.30;;;5.35;;
74459;SDS011;62902;48.854;9.292;2022-12-07T13:57:33;9.95;;;4.72;;
74459;SDS011;62902;48.854;9.292;2022-12-07T14:00:03;9.93;;;5.28;;
74459;SDS011;62902;48.854;9.292;2022-12-07T14:02:31;12.80;;;5.35;;
74459;SDS011;62902;48.854;9.292;2022-12-07T14:10:53;12.82;;;5.95;;
74459;SDS011;62902;48.854;9.292;2022-12-07T14:16:15;12.13;;;4.78;;
74459;SDS011;62902;48.854;9.292;2022-12-07T14:18:44;13.88;;;5.93;;
74459;SDS011;62902;48.854;9.292;2022-12-07T14:21:14;12.95;;;6.03;;
74459;SDS011;62902;48.854;9.292;2022-12-07T14:23:43;15.02;;;5.47;;
74459;SDS011;62902;48.854;9.292;2022-12-07T14:26:11;11.10;;;5.25;;
74459;SDS011;62902;48.854;9.292;2022-12-07T14:28:42;14.20;;;6.28;;
74459;SDS011;62902;48.854;9.292;2022-12-07T14:31:14;13.63;;;5.85;;
74459;SDS011;62902;48.854;9.292;2022-12-07T14:33:58;10.82;;;5.30;;
74459;SDS011;62902;48.854;9.292;2022-12-07T14:36:25;12.45;;;6.00;;
74459;SDS011;62902;48.854;9.292;2022-12-07T14:38:52;12.05;;;6.00;;
74459;SDS011;62902;48.854;9.292;2022-12-07T14:41:20;12.15;;;5.65;;
74459;SDS011;62902;48.854;9.292;2022-12-07T14:44:10;14.20;;;6.05;;
74459;SDS011;62902;48.854;9.292;2022-12-07T14:46:58;12.90;;;6.35;;
74459;SDS011;62902;48.854;9.292;2022-12-07T14:49:44;11.95;;;4.95;;
74459;SDS011;62902;48.854;9.292;2022-12-07T14:52:13;12.48;;;5.20;;
74459;SDS011;62902;48.854;9.292;2022-12-07T14:55:02;14.05;;;6.43;;
74459;SDS011;62902;48.854;9.292;2022-12-07T14:57:30;14.40;;;6.07;;
74459;SDS011;62902;48.854;9.292;2022-12-07T14:59:56;14.45;;;5.63;;
74459;SDS011;62902;48.854;9.292;2022-12-07T15:02:23;16.40;;;6.85;;
74459;SDS011;62902;48.854;9.292;2022-12-07T15:04:49;12.23;;;5.95;;
74459;SDS011;62902;48.854;9.292;2022-12-07T15:07:19;12.32;;;5.68;;
74459;SDS011;62902;48.854;9.292;2022-12-07T15:09:47;15.32;;;6.88;;
74459;SDS011;62902;48.854;9.292;2022-12-07T15:12:14;12.68;;;6.10;;
74459;SDS011;62902;48.854;9.292;2022-12-07T15:14:41;12.60;;;5.63;;
74459;SDS011;62902;48.854;9.292;2022-12-07T15:17:09;13.77;;;5.53;;
74459;SDS011;62902;48.854;9.292;2022-12-07T15:19:53;12.52;;;5.10;;
74459;SDS011;62902;48.854;9.292;2022-12-07T15:22:19;11.75;;;6.07;;
74459;SDS011;62902;48.854;9.292;2022-12-07T15:24:46;10.98;;;5.63;;
74459;SDS011;62902;48.854;9.292;2022-12-07T15:27:13;9.80;;;4.57;;
74459;SDS011;62902;48.854;9.292;2022-12-07T15:29:39;14.88;;;4.38;;
74459;SDS011;62902;48.854;9.292;2022-12-07T15:32:06;11.13;;;5.32;;
74459;SDS011;62902;48.854;9.292;2022-12-07T15:34:33;12.52;;;4.95;;
74459;SDS011;62902;48.854;9.292;2022-12-07T15:37:05;13.55;;;5.65;;
74459;SDS011;62902;48.854;9.292;2022-12-07T15:39:32;10.60;;;4.35;;
74459;SDS011;62902;48.854;9.292;2022-12-07T15:41:59;12.80;;;5.82;;
74459;SDS011;62902;48.854;9.292;2022-12-07T15:44:25;12.02;;;5.20;;
74459;SDS011;62902;48.854;9.292;2022-12-07T15:47:10;11.55;;;5.47;;
74459;SDS011;62902;48.854;9.292;2022-12-07T15:49:37;15.10;;;7.18;;
74459;SDS011;62902;48.854;9.292;2022-12-07T15:52:04;14.43;;;6.93;;
74459;SDS011;62902;48.854;9.292;2022-12-07T15:54:30;11.20;;;5.55;;
74459;SDS011;62902;48.854;9.292;2022-12-07T15:56:58;11.98;;;5.78;;
74459;SDS011;62902;48.854;9.292;2022-12-07T15:59:33;13.65;;;6.38;;
74459;SDS011;62902;48.854;9.292;2022-12-07T16:02:00;13.63;;;5.65;;
74459;SDS011;62902;48.854;9.292;2022-12-07T16:04:29;13.90;;;6.75;;
74459;SDS011;62902;48.854;9.292;2022-12-07T16:06:56;13.82;;;7.28;;
74459;SDS011;62902;48.854;9.292;2022-12-07T16:09:23;12.00;;;6.05;;
74459;SDS011;62902;48.854;9.292;2022-12-07T16:11:49;12.48;;;5.88;;
74459;SDS011;62902;48.854;9.292;2022-12-07T16:14:16;15.98;;;6.50;;
74459;SDS011;62902;48.854;9.292;2022-12-07T16:16:43;11.73;;;5.80;;
74459;SDS011;62902;48.854;9.292;2022-12-07T16:19:10;13.40;;;5.75;;
74459;SDS011;62902;48.854;9.292;2022-12-07T16:21:37;15.52;;;6.25;;
74459;SDS011;62902;48.854;9.292;2022-12-07T16:24:06;14.38;;;5.90;;
74459;SDS011;62902;48.854;9.292;2022-12-07T16:26:33;13.68;;;6.25;;
74459;SDS011;62902;48.854;9.292;2022-12-07T16:29:00;13.00;;;6.32;;
74459;SDS011;62902;48.854;9.292;2022-12-07T16:31:27;13.95;;;7.07;;
74459;SDS011;62902;48.854;9.292;2022-12-07T16:33:55;15.25;;;6.63;;
74459;SDS011;62902;48.854;9.292;2022-12-07T16:36:23;15.75;;;6.50;;
74459;SDS011;62902;48.854;9.292;2022-12-07T16:39:11;15.57;;;6.88;;
74459;SDS011;62902;48.854;9.292;2022-12-07T16:41:37;12.85;;;5.68;;
74459;SDS011;62902;48.854;9.292;2022-12-07T16:44:04;12.32;;;5.78;;
74459;SDS011;62902;48.854;9.292;2022-12-07T16:48:59;13.70;;;5.40;;
74459;SDS011;62902;48.854;9.292;2022-12-07T16:51:26;16.25;;;6.28;;
74459;SDS011;62902;48.854;9.292;2022-12-07T16:53:52;14.15;;;6.20;;
74459;SDS011;62902;48.854;9.292;2022-12-07T16:56:19;12.18;;;6.00;;
74459;SDS011;62902;48.854;9.292;2022-12-07T16:58:46;15.02;;;6.60;;
74459;SDS011;62902;48.854;9.292;2022-12-07T17:01:15;15.05;;;6.00;;
74459;SDS011;62902;48.854;9.292;2022-12-07T17:03:44;15.23;;;6.22;;
74459;SDS011;62902;48.854;9.292;2022-12-07T17:06:14;13.25;;;5.60;;
74459;SDS011;62902;48.854;9.292;2022-12-07T17:08:46;13.70;;;5.93;;
74459;SDS011;62902;48.854;9.292;2022-12-07T17:11:14;12.18;;;6.07;;
74459;SDS011;62902;48.854;9.292;2022-12-07T17:13:44;15.05;;;6.68;;
74459;SDS011;62902;48.854;9.292;2022-12-07T17:16:29;15.10;;;5.68;;
74459;SDS011;62902;48.854;9.292;2022-12-07T17:18:57;14.48;;;6.32;;
74459;SDS011;62902;48.854;9.292;2022-12-07T17:21:23;14.48;;;6.07;;
74459;SDS011;62902;48.854;9.292;2022-12-07T17:23:50;16.00;;;6.65;;
74459;SDS011;62902;48.854;9.292;2022-12-07T17:26:19;15.63;;;6.85;;
74459;SDS011;62902;48.854;9.292;2022-12-07T17:28:47;18.25;;;7.20;;
74459;SDS011;62902;48.854;9.292;2022-12-07T17:31:14;15.55;;;6.93;;
74459;SDS011;62902;48.854;9.292;2022-12-07T17:33:41;15.70;;;6.57;;
74459;SDS011;62902;48.854;9.292;2022-12-07T17:36:09;15.52;;;6.53;;
74459;SDS011;62902;48.854;9.292;2022-12-07T17:38:37;14.05;;;5.68;;
74459;SDS011;62902;48.854;9.292;2022-12-07T17:41:20;14.55;;;5.72;;
74459;SDS011;62902;48.854;9.292;2022-12-07T17:44:09;14.35;;;5.70;;
74459;SDS011;62902;48.854;9.292;2022-12-07T17:46:37;13.20;;;5.65;;